sensor_id;sensor_type;location;lat;lon;timestamp;P1;durP1;ratioP1;P2;durP2;ratioP2
9042;SDS011;4556;49.150;8.808;2022-09-09T00:00:44;3.87;;;1.47;;
9042;SDS011;4556;49.150;8.808;2022-09-09T00:03:19;4.07;;;1.50;;
9042;SDS011;4556;49.150;8.808;2022-09-09T00:05:52;1.73;;;1.20;;
9042;SDS011;4556;49.150;8.808;2022-09-09T00:08:30;2.97;;;1.17;;
9042;SDS011;4556;49.150;8.808;2022-09-09T00:11:04;2.90;;;1.30;;
9042;SDS011;4556;49.150;8.808;2022-09-09T00:13:33;3.67;;;1.30;;
9042;SDS011;4556;49.150;8.808;2022-09-09T00:16:07;4.20;;;1.43;;
9042;SDS011;4556;49.150;8.808;2022-09-09T00:18:46;2.00;;;1.30;;
9042;SDS011;4556;49.150;8.808;2022-09-09T00:21:19;3.50;;;1.33;;
9042;SDS011;4556;49.150;8.808;2022-09-09T00:23:50;2.63;;;1.20;;
9042;SDS011;4556;49.150;8.808;2022-09-09T00:26:20;1.90;;;1.40;;
9042;SDS011;4556;49.150;8.808;2022-09-09T00:29:04;3.80;;;1.13;;
9042;SDS011;4556;49.150;8.808;2022-09-09T00:31:38;6.27;;;1.60;;
9042;SDS011;4556;49.150;8.808;2022-09-09T00:34:09;3.80;;;1.37;;
9042;SDS011;4556;49.150;8.808;2022-09-09T00:36:38;4.37;;;1.20;;
9042;SDS011;4556;49.150;8.808;2022-09-09T00:39:08;3.73;;;1.60;;
9042;SDS011;4556;49.150;8.808;2022-09-09T00:41:44;3.13;;;1.30;;
9042;SDS011;4556;49.150;8.808;2022-09-09T00:44:23;3.07;;;1.50;;
9042;SDS011;4556;49.150;8.808;2022-09-09T00:46:59;4.80;;;1.40;;
9042;SDS011;4556;49.150;8.808;2022-09-09T00:49:40;5.47;;;1.23;;
9042;SDS011;4556;49.150;8.808;2022-09-09T00:52:19;4.57;;;1.33;;
9042;SDS011;4556;49.150;8.808;2022-09-09T00:54:57;3.87;;;1.17;;
9042;SDS011;4556;49.150;8.808;2022-09-09T00:57:30;3.77;;;1.20;;
9042;SDS011;4556;49.150;8.808;2022-09-09T01:00:00;1.97;;;1.00;;
9042;SDS011;4556;49.150;8.808;2022-09-09T01:02:45;3.43;;;1.33;;
9042;SDS011;4556;49.150;8.808;2022-09-09T01:05:34;2.83;;;1.30;;
9042;SDS011;4556;49.150;8.808;2022-09-09T01:08:11;3.83;;;1.37;;
9042;SDS011;4556;49.150;8.808;2022-09-09T01:10:49;3.90;;;1.20;;
9042;SDS011;4556;49.150;8.808;2022-09-09T01:13:20;3.47;;;1.20;;
9042;SDS011;4556;49.150;8.808;2022-09-09T01:15:51;4.20;;;1.30;;
9042;SDS011;4556;49.150;8.808;2022-09-09T01:18:20;3.13;;;1.20;;
9042;SDS011;4556;49.150;8.808;2022-09-09T01:20:53;3.07;;;1.40;;
9042;SDS011;4556;49.150;8.808;2022-09-09T01:23:35;4.27;;;1.20;;
9042;SDS011;4556;49.150;8.808;2022-09-09T01:26:28;2.40;;;1.30;;
9042;SDS011;4556;49.150;8.808;2022-09-09T01:28:59;2.43;;;0.97;;
9042;SDS011;4556;49.150;8.808;2022-09-09T01:31:26;2.37;;;1.37;;
9042;SDS011;4556;49.150;8.808;2022-09-09T01:33:56;1.67;;;0.90;;
9042;SDS011;4556;49.150;8.808;2022-09-09T01:36:25;3.87;;;1.30;;
9042;SDS011;4556;49.150;8.808;2022-09-09T01:38:58;4.30;;;1.20;;
9042;SDS011;4556;49.150;8.808;2022-09-09T01:41:25;4.87;;;1.30;;
9042;SDS011;4556;49.150;8.808;2022-09-09T01:43:54;3.40;;;1.23;;
9042;SDS011;4556;49.150;8.808;2022-09-09T01:46:22;4.10;;;1.67;;
9042;SDS011;4556;49.150;8.808;2022-09-09T01:48:50;3.90;;;1.50;;
9042;SDS011;4556;49.150;8.808;2022-09-09T01:51:18;3.10;;;1.20;;
9042;SDS011;4556;49.150;8.808;2022-09-09T01:53:45;2.53;;;1.33;;
9042;SDS011;4556;49.150;8.808;2022-09-09T01:56:17;3.77;;;1.40;;
9042;SDS011;4556;49.150;8.808;2022-09-09T01:59:00;3.27;;;1.07;;
9042;SDS011;4556;49.150;8.808;2022-09-09T02:01:43;6.40;;;1.60;;
9042;SDS011;4556;49.150;8.808;2022-09-09T02:04:24;4.50;;;1.00;;
9042;SDS011;4556;49.150;8.808;2022-09-09T02:07:02;2.70;;;1.00;;
9042;SDS011;4556;49.150;8.808;2022-09-09T02:09:30;8.93;;;1.67;;
9042;SDS011;4556;49.150;8.808;2022-09-09T02:11:57;2.37;;;1.30;;
9042;SDS011;4556;49.150;8.808;2022-09-09T02:14:34;5.60;;;1.00;;
9042;SDS011;4556;49.150;8.808;2022-09-09T02:17:08;2.33;;;0.70;;
9042;SDS011;4556;49.150;8.808;2022-09-09T02:19:37;3.70;;;1.10;;
9042;SDS011;4556;49.150;8.808;2022-09-09T02:22:11;2.90;;;1.17;;
9042;SDS011;4556;49.150;8.808;2022-09-09T02:24:38;2.43;;;1.00;;
9042;SDS011;4556;49.150;8.808;2022-09-09T02:27:06;1.47;;;0.73;;
9042;SDS011;4556;49.150;8.808;2022-09-09T02:29:37;2.37;;;0.83;;
9042;SDS011;4556;49.150;8.808;2022-09-09T02:32:07;2.33;;;0.90;;
9042;SDS011;4556;49.150;8.808;2022-09-09T02:34:39;4.27;;;0.87;;
9042;SDS011;4556;49.150;8.808;2022-09-09T02:37:09;2.10;;;0.77;;
9042;SDS011;4556;49.150;8.808;2022-09-09T02:39:38;2.83;;;0.80;;
9042;SDS011;4556;49.150;8.808;2022-09-09T02:42:05;2.63;;;0.80;;
9042;SDS011;4556;49.150;8.808;2022-09-09T02:44:32;2.60;;;0.90;;
9042;SDS011;4556;49.150;8.808;2022-09-09T02:47:16;2.57;;;1.00;;
9042;SDS011;4556;49.150;8.808;2022-09-09T02:50:01;3.20;;;0.90;;
9042;SDS011;4556;49.150;8.808;2022-09-09T02:52:34;3.23;;;0.70;;
9042;SDS011;4556;49.150;8.808;2022-09-09T02:55:10;1.97;;;0.70;;
9042;SDS011;4556;49.150;8.808;2022-09-09T02:57:42;3.17;;;0.80;;
9042;SDS011;4556;49.150;8.808;2022-09-09T03:00:13;1.80;;;0.60;;
9042;SDS011;4556;49.150;8.808;2022-09-09T03:02:42;2.70;;;0.77;;
9042;SDS011;4556;49.150;8.808;2022-09-09T03:05:10;3.67;;;1.17;;
9042;SDS011;4556;49.150;8.808;2022-09-09T03:07:38;2.73;;;0.90;;
9042;SDS011;4556;49.150;8.808;2022-09-09T03:10:06;3.73;;;1.00;;
9042;SDS011;4556;49.150;8.808;2022-09-09T03:12:35;2.83;;;0.83;;
9042;SDS011;4556;49.150;8.808;2022-09-09T03:15:02;2.30;;;0.80;;
9042;SDS011;4556;49.150;8.808;2022-09-09T03:17:29;2.70;;;0.90;;
9042;SDS011;4556;49.150;8.808;2022-09-09T03:19:58;2.17;;;0.60;;
9042;SDS011;4556;49.150;8.808;2022-09-09T03:22:25;1.53;;;0.80;;
9042;SDS011;4556;49.150;8.808;2022-09-09T03:24:51;3.10;;;0.60;;
9042;SDS011;4556;49.150;8.808;2022-09-09T03:27:18;3.00;;;0.70;;
9042;SDS011;4556;49.150;8.808;2022-09-09T03:29:45;3.40;;;0.80;;
9042;SDS011;4556;49.150;8.808;2022-09-09T03:32:15;1.63;;;0.70;;
9042;SDS011;4556;49.150;8.808;2022-09-09T03:34:42;2.77;;;0.80;;
9042;SDS011;4556;49.150;8.808;2022-09-09T03:37:11;2.43;;;0.80;;
9042;SDS011;4556;49.150;8.808;2022-09-09T03:39:38;3.97;;;0.80;;
9042;SDS011;4556;49.150;8.808;2022-09-09T03:42:04;1.97;;;0.60;;
9042;SDS011;4556;49.150;8.808;2022-09-09T03:44:32;1.70;;;0.50;;
9042;SDS011;4556;49.150;8.808;2022-09-09T03:46:58;1.50;;;0.60;;
9042;SDS011;4556;49.150;8.808;2022-09-09T03:49:26;2.63;;;0.60;;
9042;SDS011;4556;49.150;8.808;2022-09-09T03:51:53;1.93;;;0.50;;
9042;SDS011;4556;49.150;8.808;2022-09-09T03:54:22;2.53;;;0.60;;
9042;SDS011;4556;49.150;8.808;2022-09-09T03:56:49;0.50;;;0.47;;
9042;SDS011;4556;49.150;8.808;2022-09-09T03:59:16;3.07;;;0.63;;
9042;SDS011;4556;49.150;8.808;2022-09-09T04:01:43;3.20;;;1.43;;
9042;SDS011;4556;49.150;8.808;2022-09-09T04:04:12;2.30;;;0.67;;
9042;SDS011;4556;49.150;8.808;2022-09-09T04:06:39;2.63;;;0.80;;
9042;SDS011;4556;49.150;8.808;2022-09-09T04:09:06;2.07;;;0.83;;
9042;SDS011;4556;49.150;8.808;2022-09-09T04:11:34;3.17;;;0.90;;
9042;SDS011;4556;49.150;8.808;2022-09-09T04:14:01;2.23;;;0.60;;
9042;SDS011;4556;49.150;8.808;2022-09-09T04:16:29;1.17;;;0.70;;
9042;SDS011;4556;49.150;8.808;2022-09-09T04:18:59;1.27;;;0.57;;
9042;SDS011;4556;49.150;8.808;2022-09-09T04:21:26;2.10;;;0.73;;
9042;SDS011;4556;49.150;8.808;2022-09-09T04:23:53;2.33;;;0.60;;
9042;SDS011;4556;49.150;8.808;2022-09-09T04:26:20;2.33;;;0.70;;
9042;SDS011;4556;49.150;8.808;2022-09-09T04:28:48;1.90;;;0.60;;
9042;SDS011;4556;49.150;8.808;2022-09-09T04:31:37;1.83;;;0.70;;
9042;SDS011;4556;49.150;8.808;2022-09-09T04:34:07;2.20;;;0.60;;
9042;SDS011;4556;49.150;8.808;2022-09-09T04:36:41;3.10;;;0.67;;
9042;SDS011;4556;49.150;8.808;2022-09-09T04:39:30;2.27;;;0.67;;
9042;SDS011;4556;49.150;8.808;2022-09-09T04:42:22;1.33;;;0.50;;
9042;SDS011;4556;49.150;8.808;2022-09-09T04:44:57;1.70;;;0.70;;
9042;SDS011;4556;49.150;8.808;2022-09-09T04:47:45;1.97;;;0.50;;
9042;SDS011;4556;49.150;8.808;2022-09-09T04:50:28;1.57;;;0.50;;
9042;SDS011;4556;49.150;8.808;2022-09-09T04:53:12;1.97;;;0.60;;
9042;SDS011;4556;49.150;8.808;2022-09-09T04:56:09;0.93;;;0.40;;
9042;SDS011;4556;49.150;8.808;2022-09-09T04:58:48;1.50;;;0.50;;
9042;SDS011;4556;49.150;8.808;2022-09-09T05:04:58;0.70;;;0.50;;
9042;SDS011;4556;49.150;8.808;2022-09-09T05:07:47;3.90;;;0.60;;
9042;SDS011;4556;49.150;8.808;2022-09-09T05:10:38;0.70;;;0.40;;
9042;SDS011;4556;49.150;8.808;2022-09-09T05:13:37;1.60;;;0.63;;
9042;SDS011;4556;49.150;8.808;2022-09-09T05:16:49;2.10;;;0.70;;
9042;SDS011;4556;49.150;8.808;2022-09-09T05:20:21;1.90;;;0.60;;
9042;SDS011;4556;49.150;8.808;2022-09-09T06:26:15;1.37;;;0.50;;
9042;SDS011;4556;49.150;8.808;2022-09-09T06:28:46;3.93;;;1.00;;
9042;SDS011;4556;49.150;8.808;2022-09-09T06:31:26;1.97;;;0.83;;
9042;SDS011;4556;49.150;8.808;2022-09-09T06:34:05;1.03;;;0.50;;
9042;SDS011;4556;49.150;8.808;2022-09-09T06:36:37;2.80;;;0.70;;
9042;SDS011;4556;49.150;8.808;2022-09-09T06:39:14;1.57;;;0.60;;
9042;SDS011;4556;49.150;8.808;2022-09-09T06:41:55;1.80;;;0.50;;
9042;SDS011;4556;49.150;8.808;2022-09-09T06:44:31;2.03;;;0.77;;
9042;SDS011;4556;49.150;8.808;2022-09-09T06:47:05;2.37;;;0.70;;
9042;SDS011;4556;49.150;8.808;2022-09-09T06:49:33;3.33;;;0.87;;
9042;SDS011;4556;49.150;8.808;2022-09-09T06:52:02;1.30;;;0.80;;
9042;SDS011;4556;49.150;8.808;2022-09-09T06:54:31;2.70;;;0.73;;
9042;SDS011;4556;49.150;8.808;2022-09-09T06:57:00;3.03;;;0.83;;
9042;SDS011;4556;49.150;8.808;2022-09-09T06:59:27;1.77;;;0.90;;
9042;SDS011;4556;49.150;8.808;2022-09-09T07:01:57;2.00;;;0.80;;
9042;SDS011;4556;49.150;8.808;2022-09-09T07:04:24;3.67;;;1.07;;
9042;SDS011;4556;49.150;8.808;2022-09-09T07:06:54;2.03;;;0.70;;
9042;SDS011;4556;49.150;8.808;2022-09-09T07:09:21;3.80;;;0.87;;
9042;SDS011;4556;49.150;8.808;2022-09-09T07:11:54;3.30;;;0.73;;
9042;SDS011;4556;49.150;8.808;2022-09-09T07:35:53;6.23;;;1.30;;
9042;SDS011;4556;49.150;8.808;2022-09-09T07:38:23;4.87;;;1.30;;
9042;SDS011;4556;49.150;8.808;2022-09-09T07:40:52;3.53;;;1.00;;
9042;SDS011;4556;49.150;8.808;2022-09-09T07:43:20;2.63;;;0.70;;
9042;SDS011;4556;49.150;8.808;2022-09-09T07:45:56;2.77;;;0.80;;
9042;SDS011;4556;49.150;8.808;2022-09-09T07:54:22;2.77;;;0.60;;
9042;SDS011;4556;49.150;8.808;2022-09-09T07:56:51;4.00;;;0.73;;
9042;SDS011;4556;49.150;8.808;2022-09-09T07:59:22;6.37;;;1.30;;
9042;SDS011;4556;49.150;8.808;2022-09-09T08:01:50;4.37;;;0.80;;
9042;SDS011;4556;49.150;8.808;2022-09-09T08:09:40;3.73;;;1.17;;
9042;SDS011;4556;49.150;8.808;2022-09-09T08:12:09;4.97;;;1.20;;
9042;SDS011;4556;49.150;8.808;2022-09-09T08:14:38;4.83;;;1.10;;
9042;SDS011;4556;49.150;8.808;2022-09-09T08:17:05;4.73;;;1.03;;
9042;SDS011;4556;49.150;8.808;2022-09-09T08:19:32;5.67;;;1.27;;
9042;SDS011;4556;49.150;8.808;2022-09-09T08:22:01;3.50;;;0.90;;
9042;SDS011;4556;49.150;8.808;2022-09-09T08:24:28;3.83;;;0.80;;
9042;SDS011;4556;49.150;8.808;2022-09-09T08:26:56;2.47;;;1.00;;
9042;SDS011;4556;49.150;8.808;2022-09-09T08:29:23;2.37;;;0.70;;
9042;SDS011;4556;49.150;8.808;2022-09-09T08:31:50;4.13;;;0.93;;
9042;SDS011;4556;49.150;8.808;2022-09-09T08:34:20;3.33;;;0.73;;
9042;SDS011;4556;49.150;8.808;2022-09-09T08:36:48;6.30;;;0.77;;
9042;SDS011;4556;49.150;8.808;2022-09-09T08:39:16;1.73;;;0.63;;
9042;SDS011;4556;49.150;8.808;2022-09-09T08:42:04;3.53;;;0.93;;
9042;SDS011;4556;49.150;8.808;2022-09-09T08:44:59;4.40;;;1.23;;
9042;SDS011;4556;49.150;8.808;2022-09-09T08:47:54;4.60;;;1.00;;
9042;SDS011;4556;49.150;8.808;2022-09-09T08:50:35;3.30;;;0.80;;
9042;SDS011;4556;49.150;8.808;2022-09-09T08:53:04;3.70;;;1.00;;
9042;SDS011;4556;49.150;8.808;2022-09-09T08:55:37;2.67;;;0.80;;
9042;SDS011;4556;49.150;8.808;2022-09-09T08:58:20;2.33;;;0.80;;
9042;SDS011;4556;49.150;8.808;2022-09-09T09:00:58;1.67;;;0.53;;
9042;SDS011;4556;49.150;8.808;2022-09-09T09:03:47;4.07;;;0.93;;
9042;SDS011;4556;49.150;8.808;2022-09-09T09:06:30;4.60;;;1.00;;
9042;SDS011;4556;49.150;8.808;2022-09-09T09:09:14;5.73;;;1.20;;
9042;SDS011;4556;49.150;8.808;2022-09-09T09:11:56;4.03;;;0.80;;
9042;SDS011;4556;49.150;8.808;2022-09-09T09:26:56;3.23;;;0.57;;
9042;SDS011;4556;49.150;8.808;2022-09-09T09:29:34;1.90;;;0.60;;
9042;SDS011;4556;49.150;8.808;2022-09-09T09:32:16;6.93;;;0.93;;
9042;SDS011;4556;49.150;8.808;2022-09-09T09:35:06;2.90;;;0.80;;
9042;SDS011;4556;49.150;8.808;2022-09-09T09:38:19;1.93;;;0.60;;
9042;SDS011;4556;49.150;8.808;2022-09-09T09:41:23;2.20;;;0.80;;
9042;SDS011;4556;49.150;8.808;2022-09-09T09:44:28;4.57;;;1.10;;
9042;SDS011;4556;49.150;8.808;2022-09-09T09:47:05;3.37;;;0.90;;
9042;SDS011;4556;49.150;8.808;2022-09-09T09:49:33;2.20;;;0.80;;
9042;SDS011;4556;49.150;8.808;2022-09-09T09:52:01;3.87;;;0.70;;
9042;SDS011;4556;49.150;8.808;2022-09-09T09:54:28;2.23;;;0.87;;
9042;SDS011;4556;49.150;8.808;2022-09-09T09:57:06;2.53;;;0.50;;
9042;SDS011;4556;49.150;8.808;2022-09-09T09:59:36;2.63;;;0.97;;
9042;SDS011;4556;49.150;8.808;2022-09-09T10:05:31;1.93;;;0.60;;
9042;SDS011;4556;49.150;8.808;2022-09-09T10:08:08;3.53;;;0.43;;
9042;SDS011;4556;49.150;8.808;2022-09-09T10:10:42;3.87;;;0.70;;
9042;SDS011;4556;49.150;8.808;2022-09-09T10:13:34;2.63;;;0.70;;
9042;SDS011;4556;49.150;8.808;2022-09-09T10:19:26;1.80;;;0.70;;
9042;SDS011;4556;49.150;8.808;2022-09-09T10:27:54;3.43;;;0.70;;
9042;SDS011;4556;49.150;8.808;2022-09-09T10:30:45;2.57;;;0.90;;
9042;SDS011;4556;49.150;8.808;2022-09-09T10:33:44;2.23;;;0.60;;
9042;SDS011;4556;49.150;8.808;2022-09-09T10:36:26;2.23;;;0.60;;
9042;SDS011;4556;49.150;8.808;2022-09-09T10:39:15;2.20;;;0.60;;
9042;SDS011;4556;49.150;8.808;2022-09-09T10:42:01;2.60;;;0.70;;
9042;SDS011;4556;49.150;8.808;2022-09-09T10:44:38;10.13;;;1.17;;
9042;SDS011;4556;49.150;8.808;2022-09-09T10:47:37;4.17;;;0.97;;
9042;SDS011;4556;49.150;8.808;2022-09-09T10:50:38;4.00;;;0.80;;
9042;SDS011;4556;49.150;8.808;2022-09-09T10:53:27;2.03;;;0.63;;
9042;SDS011;4556;49.150;8.808;2022-09-09T10:56:22;2.53;;;0.60;;
9042;SDS011;4556;49.150;8.808;2022-09-09T10:58:52;5.50;;;1.13;;
9042;SDS011;4556;49.150;8.808;2022-09-09T11:01:44;3.83;;;0.80;;
9042;SDS011;4556;49.150;8.808;2022-09-09T11:04:21;2.83;;;0.73;;
9042;SDS011;4556;49.150;8.808;2022-09-09T11:07:21;5.83;;;0.90;;
9042;SDS011;4556;49.150;8.808;2022-09-09T11:10:15;4.47;;;1.17;;
9042;SDS011;4556;49.150;8.808;2022-09-09T11:12:53;2.93;;;0.90;;
9042;SDS011;4556;49.150;8.808;2022-09-09T11:15:35;1.23;;;0.63;;
9042;SDS011;4556;49.150;8.808;2022-09-09T11:18:08;2.70;;;0.80;;
9042;SDS011;4556;49.150;8.808;2022-09-09T11:20:49;3.77;;;0.90;;
9042;SDS011;4556;49.150;8.808;2022-09-09T11:23:32;4.73;;;0.70;;
9042;SDS011;4556;49.150;8.808;2022-09-09T11:31:53;3.47;;;0.77;;
9042;SDS011;4556;49.150;8.808;2022-09-09T11:34:49;3.77;;;0.80;;
9042;SDS011;4556;49.150;8.808;2022-09-09T11:37:38;4.87;;;0.77;;
9042;SDS011;4556;49.150;8.808;2022-09-09T11:40:24;3.17;;;0.63;;
9042;SDS011;4556;49.150;8.808;2022-09-09T11:55:11;7.73;;;1.97;;
9042;SDS011;4556;49.150;8.808;2022-09-09T11:58:03;5.10;;;0.70;;
9042;SDS011;4556;49.150;8.808;2022-09-09T12:00:37;3.43;;;0.80;;
9042;SDS011;4556;49.150;8.808;2022-09-09T12:25:39;1.60;;;0.50;;
9042;SDS011;4556;49.150;8.808;2022-09-09T12:28:22;3.00;;;0.70;;
9042;SDS011;4556;49.150;8.808;2022-09-09T12:36:29;3.97;;;1.10;;
9042;SDS011;4556;49.150;8.808;2022-09-09T12:42:27;2.17;;;0.70;;
9042;SDS011;4556;49.150;8.808;2022-09-09T12:45:17;5.93;;;0.93;;
9042;SDS011;4556;49.150;8.808;2022-09-09T12:48:07;1.20;;;0.60;;
9042;SDS011;4556;49.150;8.808;2022-09-09T12:54:12;3.13;;;0.70;;
9042;SDS011;4556;49.150;8.808;2022-09-09T12:57:02;4.60;;;0.80;;
9042;SDS011;4556;49.150;8.808;2022-09-09T12:59:40;1.93;;;0.67;;
9042;SDS011;4556;49.150;8.808;2022-09-09T13:02:14;2.57;;;0.60;;
9042;SDS011;4556;49.150;8.808;2022-09-09T13:04:44;3.00;;;0.77;;
9042;SDS011;4556;49.150;8.808;2022-09-09T13:07:12;3.23;;;0.80;;
9042;SDS011;4556;49.150;8.808;2022-09-09T13:09:41;3.33;;;0.67;;
9042;SDS011;4556;49.150;8.808;2022-09-09T13:12:11;2.53;;;0.50;;
9042;SDS011;4556;49.150;8.808;2022-09-09T13:18:27;2.77;;;0.60;;
9042;SDS011;4556;49.150;8.808;2022-09-09T13:20:56;2.70;;;0.70;;
9042;SDS011;4556;49.150;8.808;2022-09-09T13:23:25;5.53;;;0.90;;
9042;SDS011;4556;49.150;8.808;2022-09-09T13:25:55;4.70;;;0.77;;
9042;SDS011;4556;49.150;8.808;2022-09-09T13:28:23;2.50;;;0.67;;
9042;SDS011;4556;49.150;8.808;2022-09-09T13:30:58;1.57;;;0.60;;
9042;SDS011;4556;49.150;8.808;2022-09-09T13:33:33;4.83;;;0.70;;
9042;SDS011;4556;49.150;8.808;2022-09-09T13:36:02;3.47;;;0.83;;
9042;SDS011;4556;49.150;8.808;2022-09-09T13:38:32;7.60;;;1.27;;
9042;SDS011;4556;49.150;8.808;2022-09-09T13:41:04;4.37;;;1.03;;
9042;SDS011;4556;49.150;8.808;2022-09-09T13:43:35;2.73;;;0.60;;
9042;SDS011;4556;49.150;8.808;2022-09-09T13:46:24;4.53;;;1.17;;
9042;SDS011;4556;49.150;8.808;2022-09-09T13:48:57;2.97;;;1.00;;
9042;SDS011;4556;49.150;8.808;2022-09-09T13:51:34;4.27;;;0.87;;
9042;SDS011;4556;49.150;8.808;2022-09-09T13:54:04;2.07;;;0.70;;
9042;SDS011;4556;49.150;8.808;2022-09-09T13:56:37;4.13;;;1.10;;
9042;SDS011;4556;49.150;8.808;2022-09-09T13:59:20;3.53;;;0.83;;
9042;SDS011;4556;49.150;8.808;2022-09-09T14:02:08;2.43;;;0.70;;
9042;SDS011;4556;49.150;8.808;2022-09-09T14:04:54;1.70;;;0.50;;
9042;SDS011;4556;49.150;8.808;2022-09-09T14:07:25;3.50;;;0.70;;
9042;SDS011;4556;49.150;8.808;2022-09-09T14:09:58;1.13;;;0.67;;
9042;SDS011;4556;49.150;8.808;2022-09-09T14:12:26;2.23;;;0.53;;
9042;SDS011;4556;49.150;8.808;2022-09-09T14:14:53;2.73;;;0.47;;
9042;SDS011;4556;49.150;8.808;2022-09-09T14:17:24;2.30;;;0.73;;
9042;SDS011;4556;49.150;8.808;2022-09-09T14:19:55;1.70;;;0.57;;
9042;SDS011;4556;49.150;8.808;2022-09-09T14:22:22;0.93;;;0.50;;
9042;SDS011;4556;49.150;8.808;2022-09-09T14:24:50;4.07;;;0.80;;
9042;SDS011;4556;49.150;8.808;2022-09-09T14:27:22;4.87;;;0.70;;
9042;SDS011;4556;49.150;8.808;2022-09-09T14:29:51;0.53;;;0.50;;
9042;SDS011;4556;49.150;8.808;2022-09-09T14:32:18;1.87;;;0.60;;
9042;SDS011;4556;49.150;8.808;2022-09-09T14:34:45;1.70;;;0.57;;
9042;SDS011;4556;49.150;8.808;2022-09-09T14:37:16;1.73;;;0.60;;
9042;SDS011;4556;49.150;8.808;2022-09-09T14:39:43;1.00;;;0.50;;
9042;SDS011;4556;49.150;8.808;2022-09-09T14:42:11;2.00;;;0.60;;
9042;SDS011;4556;49.150;8.808;2022-09-09T14:44:39;2.17;;;0.57;;
9042;SDS011;4556;49.150;8.808;2022-09-09T14:47:06;1.10;;;0.50;;
9042;SDS011;4556;49.150;8.808;2022-09-09T14:49:33;1.40;;;0.60;;
9042;SDS011;4556;49.150;8.808;2022-09-09T14:52:00;1.53;;;0.47;;
9042;SDS011;4556;49.150;8.808;2022-09-09T14:54:29;2.30;;;0.80;;
9042;SDS011;4556;49.150;8.808;2022-09-09T14:56:56;1.97;;;0.60;;
9042;SDS011;4556;49.150;8.808;2022-09-09T14:59:31;3.27;;;0.77;;
9042;SDS011;4556;49.150;8.808;2022-09-09T15:01:59;5.47;;;0.83;;
9042;SDS011;4556;49.150;8.808;2022-09-09T15:04:29;1.10;;;0.50;;
9042;SDS011;4556;49.150;8.808;2022-09-09T15:06:56;2.27;;;0.70;;
9042;SDS011;4556;49.150;8.808;2022-09-09T15:09:23;1.47;;;0.60;;
9042;SDS011;4556;49.150;8.808;2022-09-09T15:11:52;1.17;;;0.50;;
9042;SDS011;4556;49.150;8.808;2022-09-09T15:14:19;1.97;;;0.60;;
9042;SDS011;4556;49.150;8.808;2022-09-09T15:16:46;2.13;;;0.80;;
9042;SDS011;4556;49.150;8.808;2022-09-09T15:19:14;5.13;;;1.03;;
9042;SDS011;4556;49.150;8.808;2022-09-09T15:21:41;4.20;;;0.80;;
9042;SDS011;4556;49.150;8.808;2022-09-09T15:24:08;3.03;;;0.80;;
9042;SDS011;4556;49.150;8.808;2022-09-09T15:26:35;1.17;;;0.70;;
9042;SDS011;4556;49.150;8.808;2022-09-09T15:29:06;1.90;;;0.77;;
9042;SDS011;4556;49.150;8.808;2022-09-09T15:31:33;3.33;;;0.97;;
9042;SDS011;4556;49.150;8.808;2022-09-09T15:34:01;1.20;;;0.70;;
9042;SDS011;4556;49.150;8.808;2022-09-09T15:36:30;2.30;;;0.80;;
9042;SDS011;4556;49.150;8.808;2022-09-09T15:39:11;1.47;;;0.60;;
9042;SDS011;4556;49.150;8.808;2022-09-09T16:50:05;3.20;;;0.63;;
9042;SDS011;4556;49.150;8.808;2022-09-09T16:52:39;3.70;;;0.57;;
9042;SDS011;4556;49.150;8.808;2022-09-09T16:55:09;5.23;;;0.50;;
9042;SDS011;4556;49.150;8.808;2022-09-09T16:57:42;2.17;;;0.77;;
9042;SDS011;4556;49.150;8.808;2022-09-09T17:00:14;1.23;;;0.53;;
9042;SDS011;4556;49.150;8.808;2022-09-09T17:02:43;3.70;;;0.70;;
9042;SDS011;4556;49.150;8.808;2022-09-09T17:05:14;2.10;;;0.50;;
9042;SDS011;4556;49.150;8.808;2022-09-09T17:07:46;1.77;;;0.60;;
9042;SDS011;4556;49.150;8.808;2022-09-09T17:10:14;1.50;;;0.50;;
9042;SDS011;4556;49.150;8.808;2022-09-09T17:12:43;1.83;;;0.60;;
9042;SDS011;4556;49.150;8.808;2022-09-09T17:15:11;3.47;;;0.60;;
9042;SDS011;4556;49.150;8.808;2022-09-09T17:17:38;2.50;;;0.70;;
9042;SDS011;4556;49.150;8.808;2022-09-09T17:20:11;2.40;;;0.60;;
9042;SDS011;4556;49.150;8.808;2022-09-09T17:22:47;0.93;;;0.40;;
9042;SDS011;4556;49.150;8.808;2022-09-09T17:25:33;1.33;;;0.40;;
9042;SDS011;4556;49.150;8.808;2022-09-09T18:19:57;1.60;;;0.70;;
9042;SDS011;4556;49.150;8.808;2022-09-09T18:22:25;1.83;;;0.70;;
9042;SDS011;4556;49.150;8.808;2022-09-09T18:24:52;0.80;;;0.57;;
9042;SDS011;4556;49.150;8.808;2022-09-09T18:27:18;3.70;;;1.23;;
9042;SDS011;4556;49.150;8.808;2022-09-09T18:29:45;2.73;;;0.80;;
9042;SDS011;4556;49.150;8.808;2022-09-09T18:32:12;1.73;;;0.57;;
9042;SDS011;4556;49.150;8.808;2022-09-09T18:34:41;1.83;;;0.67;;
9042;SDS011;4556;49.150;8.808;2022-09-09T18:37:09;2.13;;;0.90;;
9042;SDS011;4556;49.150;8.808;2022-09-09T18:39:37;1.53;;;0.70;;
9042;SDS011;4556;49.150;8.808;2022-09-09T18:42:04;2.97;;;0.60;;
9042;SDS011;4556;49.150;8.808;2022-09-09T18:44:32;2.20;;;0.63;;
9042;SDS011;4556;49.150;8.808;2022-09-09T18:47:00;0.80;;;0.47;;
9042;SDS011;4556;49.150;8.808;2022-09-09T18:49:27;2.80;;;0.80;;
9042;SDS011;4556;49.150;8.808;2022-09-09T18:51:54;0.93;;;0.63;;
9042;SDS011;4556;49.150;8.808;2022-09-09T18:54:24;2.20;;;0.77;;
9042;SDS011;4556;49.150;8.808;2022-09-09T18:56:53;3.07;;;0.90;;
9042;SDS011;4556;49.150;8.808;2022-09-09T18:59:22;4.00;;;0.80;;
9042;SDS011;4556;49.150;8.808;2022-09-09T19:01:50;2.43;;;0.70;;
9042;SDS011;4556;49.150;8.808;2022-09-09T19:04:18;2.57;;;0.77;;
9042;SDS011;4556;49.150;8.808;2022-09-09T19:06:46;2.47;;;0.60;;
9042;SDS011;4556;49.150;8.808;2022-09-09T19:09:17;1.83;;;0.77;;
9042;SDS011;4556;49.150;8.808;2022-09-09T19:11:45;1.07;;;0.57;;
9042;SDS011;4556;49.150;8.808;2022-09-09T19:14:16;2.33;;;0.60;;
9042;SDS011;4556;49.150;8.808;2022-09-09T19:16:43;3.23;;;0.90;;
9042;SDS011;4556;49.150;8.808;2022-09-09T19:19:13;1.00;;;0.40;;
9042;SDS011;4556;49.150;8.808;2022-09-09T19:21:41;1.37;;;0.57;;
9042;SDS011;4556;49.150;8.808;2022-09-09T19:24:10;0.83;;;0.60;;
9042;SDS011;4556;49.150;8.808;2022-09-09T19:26:39;2.93;;;0.70;;
9042;SDS011;4556;49.150;8.808;2022-09-09T19:29:10;1.40;;;0.70;;
9042;SDS011;4556;49.150;8.808;2022-09-09T19:31:39;3.90;;;0.70;;
9042;SDS011;4556;49.150;8.808;2022-09-09T19:34:06;1.87;;;0.60;;
9042;SDS011;4556;49.150;8.808;2022-09-09T19:36:34;1.53;;;0.70;;
9042;SDS011;4556;49.150;8.808;2022-09-09T19:39:02;4.33;;;0.67;;
9042;SDS011;4556;49.150;8.808;2022-09-09T19:41:30;3.10;;;0.70;;
9042;SDS011;4556;49.150;8.808;2022-09-09T19:43:59;1.57;;;0.70;;
9042;SDS011;4556;49.150;8.808;2022-09-09T19:46:29;1.70;;;0.80;;
9042;SDS011;4556;49.150;8.808;2022-09-09T19:48:58;2.03;;;0.80;;
9042;SDS011;4556;49.150;8.808;2022-09-09T19:51:26;3.87;;;0.80;;
9042;SDS011;4556;49.150;8.808;2022-09-09T19:53:59;4.17;;;1.13;;
9042;SDS011;4556;49.150;8.808;2022-09-09T19:56:31;1.63;;;1.00;;
9042;SDS011;4556;49.150;8.808;2022-09-09T19:58:59;6.37;;;0.90;;
9042;SDS011;4556;49.150;8.808;2022-09-09T20:01:29;1.47;;;0.70;;
9042;SDS011;4556;49.150;8.808;2022-09-09T20:03:57;4.97;;;1.30;;
9042;SDS011;4556;49.150;8.808;2022-09-09T20:06:25;2.77;;;0.87;;
9042;SDS011;4556;49.150;8.808;2022-09-09T20:08:54;2.60;;;0.70;;
9042;SDS011;4556;49.150;8.808;2022-09-09T20:11:22;3.03;;;0.70;;
9042;SDS011;4556;49.150;8.808;2022-09-09T20:13:49;1.70;;;0.70;;
9042;SDS011;4556;49.150;8.808;2022-09-09T20:16:18;4.17;;;0.80;;
9042;SDS011;4556;49.150;8.808;2022-09-09T20:18:47;2.67;;;0.87;;
9042;SDS011;4556;49.150;8.808;2022-09-09T20:21:17;1.73;;;0.83;;
9042;SDS011;4556;49.150;8.808;2022-09-09T20:23:46;2.10;;;0.83;;
9042;SDS011;4556;49.150;8.808;2022-09-09T20:26:14;2.17;;;0.83;;
9042;SDS011;4556;49.150;8.808;2022-09-09T20:28:43;0.93;;;0.60;;
9042;SDS011;4556;49.150;8.808;2022-09-09T20:31:11;2.57;;;0.60;;
9042;SDS011;4556;49.150;8.808;2022-09-09T20:33:40;4.17;;;0.70;;
9042;SDS011;4556;49.150;8.808;2022-09-09T20:36:10;4.93;;;1.13;;
9042;SDS011;4556;49.150;8.808;2022-09-09T20:38:42;2.97;;;1.07;;
9042;SDS011;4556;49.150;8.808;2022-09-09T20:41:09;2.00;;;0.97;;
9042;SDS011;4556;49.150;8.808;2022-09-09T20:43:39;1.73;;;0.90;;
9042;SDS011;4556;49.150;8.808;2022-09-09T20:46:10;2.63;;;0.90;;
9042;SDS011;4556;49.150;8.808;2022-09-09T20:48:37;1.90;;;0.70;;
9042;SDS011;4556;49.150;8.808;2022-09-09T20:51:06;2.13;;;0.80;;
9042;SDS011;4556;49.150;8.808;2022-09-09T20:53:36;2.50;;;0.77;;
9042;SDS011;4556;49.150;8.808;2022-09-09T20:56:04;2.77;;;0.90;;